sensor_id;sensor_type;location;lat;lon;timestamp;P1;durP1;ratioP1;P2;durP2;ratioP2
34775;SDS011;20989;52.566;13.346;2023-02-15T00:01:11;3.55;;;3.25;;
34775;SDS011;20989;52.566;13.346;2023-02-15T00:04:15;3.17;;;2.97;;
34775;SDS011;20989;52.566;13.346;2023-02-15T00:07:18;2.60;;;2.50;;
34775;SDS011;20989;52.566;13.346;2023-02-15T00:10:19;2.85;;;2.67;;
34775;SDS011;20989;52.566;13.346;2023-02-15T00:13:19;3.08;;;2.88;;
34775;SDS011;20989;52.566;13.346;2023-02-15T00:16:20;2.85;;;2.65;;
34775;SDS011;20989;52.566;13.346;2023-02-15T00:19:21;2.97;;;2.78;;
34775;SDS011;20989;52.566;13.346;2023-02-15T00:22:21;2.38;;;2.28;;
34775;SDS011;20989;52.566;13.346;2023-02-15T00:25:22;2.50;;;2.22;;
34775;SDS011;20989;52.566;13.346;2023-02-15T00:28:23;2.53;;;2.42;;
34775;SDS011;20989;52.566;13.346;2023-02-15T00:31:25;3.00;;;2.80;;
34775;SDS011;20989;52.566;13.346;2023-02-15T00:34:30;2.63;;;2.53;;
34775;SDS011;20989;52.566;13.346;2023-02-15T00:37:31;2.92;;;2.72;;
34775;SDS011;20989;52.566;13.346;2023-02-15T00:40:31;2.45;;;2.35;;
34775;SDS011;20989;52.566;13.346;2023-02-15T00:43:32;2.20;;;2.10;;
34775;SDS011;20989;52.566;13.346;2023-02-15T00:46:33;2.60;;;2.50;;
34775;SDS011;20989;52.566;13.346;2023-02-15T00:49:34;2.45;;;2.35;;
34775;SDS011;20989;52.566;13.346;2023-02-15T00:52:35;2.60;;;2.40;;
34775;SDS011;20989;52.566;13.346;2023-02-15T00:55:36;2.40;;;2.30;;
34775;SDS011;20989;52.566;13.346;2023-02-15T00:58:36;2.35;;;2.25;;
34775;SDS011;20989;52.566;13.346;2023-02-15T01:01:37;2.50;;;2.40;;
34775;SDS011;20989;52.566;13.346;2023-02-15T01:04:38;2.63;;;2.53;;
34775;SDS011;20989;52.566;13.346;2023-02-15T01:07:38;2.25;;;2.15;;
34775;SDS011;20989;52.566;13.346;2023-02-15T01:10:39;2.50;;;2.40;;
34775;SDS011;20989;52.566;13.346;2023-02-15T01:13:40;2.78;;;2.58;;
34775;SDS011;20989;52.566;13.346;2023-02-15T01:16:41;2.47;;;2.38;;
34775;SDS011;20989;52.566;13.346;2023-02-15T01:19:42;2.42;;;2.33;;
34775;SDS011;20989;52.566;13.346;2023-02-15T01:22:43;2.25;;;2.15;;
34775;SDS011;20989;52.566;13.346;2023-02-15T01:25:43;2.63;;;2.45;;
34775;SDS011;20989;52.566;13.346;2023-02-15T01:28:44;2.20;;;2.10;;
34775;SDS011;20989;52.566;13.346;2023-02-15T01:31:45;2.50;;;2.40;;
34775;SDS011;20989;52.566;13.346;2023-02-15T01:34:46;2.40;;;2.30;;
34775;SDS011;20989;52.566;13.346;2023-02-15T01:37:46;2.30;;;2.10;;
34775;SDS011;20989;52.566;13.346;2023-02-15T01:40:49;2.47;;;2.28;;
34775;SDS011;20989;52.566;13.346;2023-02-15T01:43:55;2.10;;;2.00;;
34775;SDS011;20989;52.566;13.346;2023-02-15T01:46:57;2.47;;;2.38;;
34775;SDS011;20989;52.566;13.346;2023-02-15T01:50:00;2.35;;;2.25;;
34775;SDS011;20989;52.566;13.346;2023-02-15T01:56:13;2.00;;;1.90;;
34775;SDS011;20989;52.566;13.346;2023-02-15T01:59:19;2.70;;;2.50;;
34775;SDS011;20989;52.566;13.346;2023-02-15T02:02:23;2.55;;;2.42;;
34775;SDS011;20989;52.566;13.346;2023-02-15T02:05:27;2.80;;;2.60;;
34775;SDS011;20989;52.566;13.346;2023-02-15T02:08:28;2.70;;;2.60;;
34775;SDS011;20989;52.566;13.346;2023-02-15T02:11:29;2.42;;;2.33;;
34775;SDS011;20989;52.566;13.346;2023-02-15T02:14:29;2.45;;;2.33;;
34775;SDS011;20989;52.566;13.346;2023-02-15T02:17:54;2.70;;;2.50;;
34775;SDS011;20989;52.566;13.346;2023-02-15T02:21:09;2.28;;;2.17;;
34775;SDS011;20989;52.566;13.346;2023-02-15T02:31:32;2.58;;;2.40;;
34775;SDS011;20989;52.566;13.346;2023-02-15T02:35:01;2.38;;;2.28;;
34775;SDS011;20989;52.566;13.346;2023-02-15T02:38:14;2.85;;;2.65;;
34775;SDS011;20989;52.566;13.346;2023-02-15T02:41:38;2.20;;;2.10;;
34775;SDS011;20989;52.566;13.346;2023-02-15T02:44:52;2.45;;;2.25;;
34775;SDS011;20989;52.566;13.346;2023-02-15T02:48:03;2.63;;;2.53;;
34775;SDS011;20989;52.566;13.346;2023-02-15T02:51:07;2.53;;;2.35;;
34775;SDS011;20989;52.566;13.346;2023-02-15T02:54:08;2.80;;;2.60;;
34775;SDS011;20989;52.566;13.346;2023-02-15T02:57:09;2.22;;;2.13;;
34775;SDS011;20989;52.566;13.346;2023-02-15T03:00:10;1.98;;;1.88;;
34775;SDS011;20989;52.566;13.346;2023-02-15T03:03:13;2.75;;;2.58;;
34775;SDS011;20989;52.566;13.346;2023-02-15T03:06:25;2.22;;;2.13;;
34775;SDS011;20989;52.566;13.346;2023-02-15T03:09:37;2.17;;;2.08;;
34775;SDS011;20989;52.566;13.346;2023-02-15T03:12:44;2.08;;;1.98;;
34775;SDS011;20989;52.566;13.346;2023-02-15T03:15:45;2.78;;;2.58;;
34775;SDS011;20989;52.566;13.346;2023-02-15T03:19:07;2.35;;;2.25;;
34775;SDS011;20989;52.566;13.346;2023-02-15T03:22:13;2.38;;;2.28;;
34775;SDS011;20989;52.566;13.346;2023-02-15T03:25:22;2.20;;;2.10;;
34775;SDS011;20989;52.566;13.346;2023-02-15T03:28:42;2.00;;;1.90;;
34775;SDS011;20989;52.566;13.346;2023-02-15T03:31:46;2.15;;;2.05;;
34775;SDS011;20989;52.566;13.346;2023-02-15T03:34:51;2.45;;;2.30;;
34775;SDS011;20989;52.566;13.346;2023-02-15T03:37:57;2.60;;;2.40;;
34775;SDS011;20989;52.566;13.346;2023-02-15T03:41:00;2.45;;;2.35;;
34775;SDS011;20989;52.566;13.346;2023-02-15T03:44:11;2.75;;;2.17;;
34775;SDS011;20989;52.566;13.346;2023-02-15T03:47:24;2.13;;;2.03;;
34775;SDS011;20989;52.566;13.346;2023-02-15T03:50:31;2.20;;;2.10;;
34775;SDS011;20989;52.566;13.346;2023-02-15T03:53:54;1.95;;;1.85;;
34775;SDS011;20989;52.566;13.346;2023-02-15T03:56:57;1.95;;;1.85;;
34775;SDS011;20989;52.566;13.346;2023-02-15T04:00:21;2.35;;;2.20;;
34775;SDS011;20989;52.566;13.346;2023-02-15T04:03:44;2.30;;;2.20;;
34775;SDS011;20989;52.566;13.346;2023-02-15T04:06:51;2.30;;;2.20;;
34775;SDS011;20989;52.566;13.346;2023-02-15T04:09:52;2.38;;;2.28;;
34775;SDS011;20989;52.566;13.346;2023-02-15T04:13:11;2.58;;;2.28;;
34775;SDS011;20989;52.566;13.346;2023-02-15T04:16:12;2.67;;;2.58;;
34775;SDS011;20989;52.566;13.346;2023-02-15T04:19:12;2.63;;;2.42;;
34775;SDS011;20989;52.566;13.346;2023-02-15T04:22:31;2.30;;;2.20;;
34775;SDS011;20989;52.566;13.346;2023-02-15T04:25:51;2.35;;;2.22;;
34775;SDS011;20989;52.566;13.346;2023-02-15T04:28:52;2.40;;;2.30;;
34775;SDS011;20989;52.566;13.346;2023-02-15T04:31:53;2.45;;;2.35;;
34775;SDS011;20989;52.566;13.346;2023-02-15T04:34:55;2.70;;;2.58;;
34775;SDS011;20989;52.566;13.346;2023-02-15T04:37:55;2.30;;;2.20;;
34775;SDS011;20989;52.566;13.346;2023-02-15T04:40:56;3.00;;;2.80;;
34775;SDS011;20989;52.566;13.346;2023-02-15T04:43:56;2.25;;;2.15;;
34775;SDS011;20989;52.566;13.346;2023-02-15T04:46:57;2.63;;;2.50;;
34775;SDS011;20989;52.566;13.346;2023-02-15T04:49:57;2.10;;;2.00;;
34775;SDS011;20989;52.566;13.346;2023-02-15T04:52:58;2.75;;;2.55;;
34775;SDS011;20989;52.566;13.346;2023-02-15T04:55:59;2.38;;;2.28;;
34775;SDS011;20989;52.566;13.346;2023-02-15T04:58:59;2.50;;;2.40;;
34775;SDS011;20989;52.566;13.346;2023-02-15T05:02:00;2.28;;;2.15;;
34775;SDS011;20989;52.566;13.346;2023-02-15T05:05:01;2.38;;;2.17;;
34775;SDS011;20989;52.566;13.346;2023-02-15T05:08:02;2.95;;;2.75;;
34775;SDS011;20989;52.566;13.346;2023-02-15T05:11:03;2.40;;;2.25;;
34775;SDS011;20989;52.566;13.346;2023-02-15T05:14:04;2.42;;;2.33;;
34775;SDS011;20989;52.566;13.346;2023-02-15T05:17:04;2.85;;;2.65;;
34775;SDS011;20989;52.566;13.346;2023-02-15T05:20:05;2.95;;;2.75;;
34775;SDS011;20989;52.566;13.346;2023-02-15T05:23:07;2.78;;;2.58;;
34775;SDS011;20989;52.566;13.346;2023-02-15T05:26:11;2.60;;;2.40;;
34775;SDS011;20989;52.566;13.346;2023-02-15T05:29:31;2.60;;;2.40;;
34775;SDS011;20989;52.566;13.346;2023-02-15T05:32:32;2.95;;;2.75;;
34775;SDS011;20989;52.566;13.346;2023-02-15T05:35:32;2.95;;;2.75;;
34775;SDS011;20989;52.566;13.346;2023-02-15T05:38:34;2.72;;;2.53;;
34775;SDS011;20989;52.566;13.346;2023-02-15T05:41:36;2.42;;;2.33;;
34775;SDS011;20989;52.566;13.346;2023-02-15T05:44:37;2.85;;;2.70;;
34775;SDS011;20989;52.566;13.346;2023-02-15T05:47:37;2.97;;;2.78;;
34775;SDS011;20989;52.566;13.346;2023-02-15T05:50:38;2.58;;;2.38;;
34775;SDS011;20989;52.566;13.346;2023-02-15T05:53:39;2.97;;;2.78;;
34775;SDS011;20989;52.566;13.346;2023-02-15T05:56:40;2.83;;;2.63;;
34775;SDS011;20989;52.566;13.346;2023-02-15T05:59:41;2.60;;;2.50;;
34775;SDS011;20989;52.566;13.346;2023-02-15T06:02:41;3.13;;;2.92;;
34775;SDS011;20989;52.566;13.346;2023-02-15T06:05:42;2.90;;;2.70;;
34775;SDS011;20989;52.566;13.346;2023-02-15T06:08:43;2.85;;;2.65;;
34775;SDS011;20989;52.566;13.346;2023-02-15T06:11:44;2.95;;;2.75;;
34775;SDS011;20989;52.566;13.346;2023-02-15T06:14:45;2.65;;;2.45;;
34775;SDS011;20989;52.566;13.346;2023-02-15T06:17:45;3.38;;;3.13;;
34775;SDS011;20989;52.566;13.346;2023-02-15T06:20:46;3.47;;;3.28;;
34775;SDS011;20989;52.566;13.346;2023-02-15T06:23:47;3.17;;;2.97;;
34775;SDS011;20989;52.566;13.346;2023-02-15T06:26:48;3.00;;;2.80;;
34775;SDS011;20989;52.566;13.346;2023-02-15T06:29:49;3.10;;;2.90;;
34775;SDS011;20989;52.566;13.346;2023-02-15T06:32:49;3.25;;;3.05;;
34775;SDS011;20989;52.566;13.346;2023-02-15T06:35:50;2.85;;;2.65;;
34775;SDS011;20989;52.566;13.346;2023-02-15T06:38:51;2.67;;;2.50;;
34775;SDS011;20989;52.566;13.346;2023-02-15T06:41:51;2.95;;;2.75;;
34775;SDS011;20989;52.566;13.346;2023-02-15T06:44:52;11.68;;;6.85;;
34775;SDS011;20989;52.566;13.346;2023-02-15T06:47:53;16.23;;;11.65;;
34775;SDS011;20989;52.566;13.346;2023-02-15T06:50:53;11.35;;;7.30;;
34775;SDS011;20989;52.566;13.346;2023-02-15T06:53:54;10.85;;;8.25;;
34775;SDS011;20989;52.566;13.346;2023-02-15T06:56:56;8.55;;;7.60;;
34775;SDS011;20989;52.566;13.346;2023-02-15T06:59:56;13.13;;;8.32;;
34775;SDS011;20989;52.566;13.346;2023-02-15T07:02:58;9.77;;;7.30;;
34775;SDS011;20989;52.566;13.346;2023-02-15T07:06:00;10.30;;;6.75;;
34775;SDS011;20989;52.566;13.346;2023-02-15T07:09:01;7.88;;;6.88;;
34775;SDS011;20989;52.566;13.346;2023-02-15T07:12:03;7.97;;;7.18;;
34775;SDS011;20989;52.566;13.346;2023-02-15T07:15:23;6.72;;;6.07;;
34775;SDS011;20989;52.566;13.346;2023-02-15T07:18:23;7.28;;;6.57;;
34775;SDS011;20989;52.566;13.346;2023-02-15T07:21:24;8.35;;;7.00;;
34775;SDS011;20989;52.566;13.346;2023-02-15T07:24:25;8.25;;;6.35;;
34775;SDS011;20989;52.566;13.346;2023-02-15T07:27:25;6.63;;;6.03;;
34775;SDS011;20989;52.566;13.346;2023-02-15T07:30:26;6.78;;;6.00;;
34775;SDS011;20989;52.566;13.346;2023-02-15T07:33:29;7.78;;;6.65;;
34775;SDS011;20989;52.566;13.346;2023-02-15T07:36:34;6.72;;;5.97;;
34775;SDS011;20989;52.566;13.346;2023-02-15T07:39:35;5.70;;;5.10;;
34775;SDS011;20989;52.566;13.346;2023-02-15T07:42:35;17.90;;;6.00;;
34775;SDS011;20989;52.566;13.346;2023-02-15T07:45:36;9.95;;;5.50;;
34775;SDS011;20989;52.566;13.346;2023-02-15T07:48:37;8.40;;;6.13;;
34775;SDS011;20989;52.566;13.346;2023-02-15T07:51:38;6.47;;;5.15;;
34775;SDS011;20989;52.566;13.346;2023-02-15T07:54:40;8.90;;;6.05;;
34775;SDS011;20989;52.566;13.346;2023-02-15T07:57:41;7.47;;;5.65;;
34775;SDS011;20989;52.566;13.346;2023-02-15T08:00:46;9.90;;;6.13;;
34775;SDS011;20989;52.566;13.346;2023-02-15T08:04:01;7.00;;;5.97;;
34775;SDS011;20989;52.566;13.346;2023-02-15T08:07:02;8.07;;;5.68;;
34775;SDS011;20989;52.566;13.346;2023-02-15T08:10:05;8.07;;;5.85;;
34775;SDS011;20989;52.566;13.346;2023-02-15T08:13:06;9.93;;;5.93;;
34775;SDS011;20989;52.566;13.346;2023-02-15T08:16:06;7.43;;;6.10;;
34775;SDS011;20989;52.566;13.346;2023-02-15T08:19:08;6.45;;;5.78;;
34775;SDS011;20989;52.566;13.346;2023-02-15T08:22:10;7.95;;;5.20;;
34775;SDS011;20989;52.566;13.346;2023-02-15T08:25:13;7.07;;;5.68;;
34775;SDS011;20989;52.566;13.346;2023-02-15T08:28:14;7.97;;;6.18;;
34775;SDS011;20989;52.566;13.346;2023-02-15T08:31:15;9.52;;;5.70;;
34775;SDS011;20989;52.566;13.346;2023-02-15T08:34:17;7.20;;;5.45;;
34775;SDS011;20989;52.566;13.346;2023-02-15T08:37:18;7.20;;;5.85;;
34775;SDS011;20989;52.566;13.346;2023-02-15T08:40:19;7.60;;;5.88;;
34775;SDS011;20989;52.566;13.346;2023-02-15T08:43:20;7.18;;;6.28;;
34775;SDS011;20989;52.566;13.346;2023-02-15T08:46:21;6.72;;;6.13;;
34775;SDS011;20989;52.566;13.346;2023-02-15T08:49:23;8.38;;;5.35;;
34775;SDS011;20989;52.566;13.346;2023-02-15T08:52:24;7.07;;;5.28;;
34775;SDS011;20989;52.566;13.346;2023-02-15T08:55:24;7.10;;;5.85;;
34775;SDS011;20989;52.566;13.346;2023-02-15T08:58:25;5.65;;;5.13;;
34775;SDS011;20989;52.566;13.346;2023-02-15T09:01:26;8.43;;;6.32;;
34775;SDS011;20989;52.566;13.346;2023-02-15T09:04:29;8.40;;;6.28;;
34775;SDS011;20989;52.566;13.346;2023-02-15T09:07:29;8.07;;;6.35;;
34775;SDS011;20989;52.566;13.346;2023-02-15T09:10:30;8.68;;;5.95;;
34775;SDS011;20989;52.566;13.346;2023-02-15T09:13:31;6.90;;;5.18;;
34775;SDS011;20989;52.566;13.346;2023-02-15T09:16:32;8.13;;;5.32;;
34775;SDS011;20989;52.566;13.346;2023-02-15T09:19:34;6.53;;;5.60;;
34775;SDS011;20989;52.566;13.346;2023-02-15T09:22:35;7.20;;;6.60;;
34775;SDS011;20989;52.566;13.346;2023-02-15T09:25:35;6.07;;;5.47;;
34775;SDS011;20989;52.566;13.346;2023-02-15T09:28:36;6.68;;;5.97;;
34775;SDS011;20989;52.566;13.346;2023-02-15T09:31:38;6.47;;;5.88;;
34775;SDS011;20989;52.566;13.346;2023-02-15T09:34:41;6.72;;;5.68;;
34775;SDS011;20989;52.566;13.346;2023-02-15T09:37:41;7.55;;;5.93;;
34775;SDS011;20989;52.566;13.346;2023-02-15T09:40:43;7.05;;;5.47;;
34775;SDS011;20989;52.566;13.346;2023-02-15T09:57:58;6.15;;;5.18;;
34775;SDS011;20989;52.566;13.346;2023-02-15T10:05:03;6.28;;;5.68;;
34775;SDS011;20989;52.566;13.346;2023-02-15T10:11:18;18.58;;;14.07;;
34775;SDS011;20989;52.566;13.346;2023-02-15T10:21:24;16.67;;;8.68;;
34775;SDS011;20989;52.566;13.346;2023-02-15T10:27:30;10.95;;;7.28;;
34775;SDS011;20989;52.566;13.346;2023-02-15T10:33:44;7.72;;;7.03;;
34775;SDS011;20989;52.566;13.346;2023-02-15T10:47:00;7.75;;;6.95;;
34775;SDS011;20989;52.566;13.346;2023-02-15T10:50:36;8.32;;;6.38;;
34775;SDS011;20989;52.566;13.346;2023-02-15T10:57:13;7.50;;;6.80;;
34775;SDS011;20989;52.566;13.346;2023-02-15T11:00:23;6.75;;;6.15;;
34775;SDS011;20989;52.566;13.346;2023-02-15T11:06:54;8.95;;;7.00;;
34775;SDS011;20989;52.566;13.346;2023-02-15T11:13:18;7.30;;;6.55;;
34775;SDS011;20989;52.566;13.346;2023-02-15T11:16:26;6.57;;;5.78;;
34775;SDS011;20989;52.566;13.346;2023-02-15T11:19:33;6.68;;;5.97;;
34775;SDS011;20989;52.566;13.346;2023-02-15T11:22:53;9.05;;;6.40;;
34775;SDS011;20989;52.566;13.346;2023-02-15T11:25:58;18.30;;;10.43;;
34775;SDS011;20989;52.566;13.346;2023-02-15T11:29:07;21.83;;;11.17;;
34775;SDS011;20989;52.566;13.346;2023-02-15T11:35:24;25.17;;;10.40;;
34775;SDS011;20989;52.566;13.346;2023-02-15T11:38:31;20.70;;;10.35;;
34775;SDS011;20989;52.566;13.346;2023-02-15T11:41:34;17.88;;;9.93;;
34775;SDS011;20989;52.566;13.346;2023-02-15T11:44:40;15.55;;;9.55;;
34775;SDS011;20989;52.566;13.346;2023-02-15T11:47:49;14.90;;;8.90;;
34775;SDS011;20989;52.566;13.346;2023-02-15T11:50:49;16.08;;;11.30;;
34775;SDS011;20989;52.566;13.346;2023-02-15T11:53:50;13.40;;;9.60;;
34775;SDS011;20989;52.566;13.346;2023-02-15T11:56:51;14.15;;;9.05;;
34775;SDS011;20989;52.566;13.346;2023-02-15T11:59:56;16.52;;;8.57;;
34775;SDS011;20989;52.566;13.346;2023-02-15T12:03:09;16.45;;;9.93;;
34775;SDS011;20989;52.566;13.346;2023-02-15T12:06:23;12.90;;;8.35;;
34775;SDS011;20989;52.566;13.346;2023-02-15T12:12:34;11.95;;;7.80;;
34775;SDS011;20989;52.566;13.346;2023-02-15T12:15:36;16.42;;;8.80;;
34775;SDS011;20989;52.566;13.346;2023-02-15T12:18:38;14.25;;;8.13;;
34775;SDS011;20989;52.566;13.346;2023-02-15T12:21:44;11.20;;;7.93;;
34775;SDS011;20989;52.566;13.346;2023-02-15T12:24:49;10.98;;;7.90;;
34775;SDS011;20989;52.566;13.346;2023-02-15T12:27:53;10.65;;;8.30;;
34775;SDS011;20989;52.566;13.346;2023-02-15T12:30:54;11.30;;;7.85;;
34775;SDS011;20989;52.566;13.346;2023-02-15T12:33:56;20.38;;;11.20;;
34775;SDS011;20989;52.566;13.346;2023-02-15T12:37:01;29.33;;;13.45;;
34775;SDS011;20989;52.566;13.346;2023-02-15T12:40:20;23.80;;;11.43;;
34775;SDS011;20989;52.566;13.346;2023-02-15T12:43:41;28.95;;;14.02;;
34775;SDS011;20989;52.566;13.346;2023-02-15T12:46:41;32.10;;;17.02;;
34775;SDS011;20989;52.566;13.346;2023-02-15T12:49:44;39.83;;;18.35;;
34775;SDS011;20989;52.566;13.346;2023-02-15T12:53:48;55.40;;;22.98;;
34775;SDS011;20989;52.566;13.346;2023-02-15T12:59:32;67.75;;;25.13;;
34775;SDS011;20989;52.566;13.346;2023-02-15T13:06:03;62.70;;;26.92;;
34775;SDS011;20989;52.566;13.346;2023-02-15T13:09:15;59.33;;;23.85;;
34775;SDS011;20989;52.566;13.346;2023-02-15T13:12:21;54.15;;;23.55;;
34775;SDS011;20989;52.566;13.346;2023-02-15T13:15:36;52.17;;;22.17;;
34775;SDS011;20989;52.566;13.346;2023-02-15T13:18:42;54.60;;;22.40;;
34775;SDS011;20989;52.566;13.346;2023-02-15T13:21:46;60.17;;;24.75;;
34775;SDS011;20989;52.566;13.346;2023-02-15T13:25:32;53.75;;;22.80;;
34775;SDS011;20989;52.566;13.346;2023-02-15T13:28:18;50.83;;;20.58;;
34775;SDS011;20989;52.566;13.346;2023-02-15T13:31:23;39.83;;;18.58;;
34775;SDS011;20989;52.566;13.346;2023-02-15T13:34:34;44.28;;;19.48;;
34775;SDS011;20989;52.566;13.346;2023-02-15T13:41:17;45.38;;;20.10;;
34775;SDS011;20989;52.566;13.346;2023-02-15T13:44:51;38.53;;;17.48;;
34775;SDS011;20989;52.566;13.346;2023-02-15T13:51:29;33.83;;;16.88;;
34775;SDS011;20989;52.566;13.346;2023-02-15T13:55:02;34.58;;;15.40;;
34775;SDS011;20989;52.566;13.346;2023-02-15T14:01:41;33.35;;;16.10;;
34775;SDS011;20989;52.566;13.346;2023-02-15T14:17:54;29.27;;;14.20;;
34775;SDS011;20989;52.566;13.346;2023-02-15T14:21:00;38.70;;;15.60;;
34775;SDS011;20989;52.566;13.346;2023-02-15T14:30:31;27.92;;;12.77;;
34775;SDS011;20989;52.566;13.346;2023-02-15T14:33:39;26.50;;;12.68;;
34775;SDS011;20989;52.566;13.346;2023-02-15T14:36:43;37.85;;;12.23;;
34775;SDS011;20989;52.566;13.346;2023-02-15T14:39:49;27.90;;;12.98;;
34775;SDS011;20989;52.566;13.346;2023-02-15T14:47:14;24.48;;;16.05;;
34775;SDS011;20989;52.566;13.346;2023-02-15T14:56:31;18.00;;;13.05;;
34775;SDS011;20989;52.566;13.346;2023-02-15T15:02:43;16.95;;;10.50;;
34775;SDS011;20989;52.566;13.346;2023-02-15T15:05:49;15.77;;;10.77;;
34775;SDS011;20989;52.566;13.346;2023-02-15T15:08:54;15.13;;;10.77;;
34775;SDS011;20989;52.566;13.346;2023-02-15T15:18:45;12.40;;;8.35;;
34775;SDS011;20989;52.566;13.346;2023-02-15T15:24:58;11.20;;;8.23;;
34775;SDS011;20989;52.566;13.346;2023-02-15T15:44:48;10.85;;;7.72;;
34775;SDS011;20989;52.566;13.346;2023-02-15T15:51:39;9.60;;;6.80;;
34775;SDS011;20989;52.566;13.346;2023-02-15T15:54:42;8.88;;;6.97;;
34775;SDS011;20989;52.566;13.346;2023-02-15T15:57:44;11.10;;;6.97;;
34775;SDS011;20989;52.566;13.346;2023-02-15T16:01:07;9.52;;;6.82;;
34775;SDS011;20989;52.566;13.346;2023-02-15T16:04:25;9.07;;;6.88;;
34775;SDS011;20989;52.566;13.346;2023-02-15T16:07:29;8.93;;;7.22;;
34775;SDS011;20989;52.566;13.346;2023-02-15T16:10:31;8.27;;;5.80;;
34775;SDS011;20989;52.566;13.346;2023-02-15T16:13:33;9.00;;;6.38;;
34775;SDS011;20989;52.566;13.346;2023-02-15T16:16:34;8.88;;;6.50;;
34775;SDS011;20989;52.566;13.346;2023-02-15T16:19:38;8.63;;;6.03;;
34775;SDS011;20989;52.566;13.346;2023-02-15T16:22:41;8.88;;;6.40;;
34775;SDS011;20989;52.566;13.346;2023-02-15T16:28:52;6.85;;;6.15;;
34775;SDS011;20989;52.566;13.346;2023-02-15T16:32:36;9.48;;;6.60;;
34775;SDS011;20989;52.566;13.346;2023-02-15T16:35:20;10.10;;;5.80;;
34775;SDS011;20989;52.566;13.346;2023-02-15T16:41:43;7.40;;;5.30;;
34775;SDS011;20989;52.566;13.346;2023-02-15T16:44:47;9.70;;;5.40;;
34775;SDS011;20989;52.566;13.346;2023-02-15T16:48:04;7.72;;;5.80;;
34775;SDS011;20989;52.566;13.346;2023-02-15T16:51:10;10.65;;;5.60;;
34775;SDS011;20989;52.566;13.346;2023-02-15T16:54:21;6.60;;;5.78;;
34775;SDS011;20989;52.566;13.346;2023-02-15T16:57:28;5.88;;;5.03;;
34775;SDS011;20989;52.566;13.346;2023-02-15T17:00:36;5.97;;;5.18;;
34775;SDS011;20989;52.566;13.346;2023-02-15T17:03:40;10.98;;;5.35;;
34775;SDS011;20989;52.566;13.346;2023-02-15T17:06:41;6.15;;;5.18;;
34775;SDS011;20989;52.566;13.346;2023-02-15T17:10:34;5.47;;;5.03;;
34775;SDS011;20989;52.566;13.346;2023-02-15T17:13:36;4.95;;;4.50;;
34775;SDS011;20989;52.566;13.346;2023-02-15T17:16:44;8.38;;;5.38;;
34775;SDS011;20989;52.566;13.346;2023-02-15T17:19:50;6.40;;;5.00;;
34775;SDS011;20989;52.566;13.346;2023-02-15T17:22:54;10.82;;;4.63;;
34775;SDS011;20989;52.566;13.346;2023-02-15T17:25:55;5.20;;;4.70;;
34775;SDS011;20989;52.566;13.346;2023-02-15T17:29:11;7.13;;;5.03;;
34775;SDS011;20989;52.566;13.346;2023-02-15T17:32:32;5.38;;;4.88;;
34775;SDS011;20989;52.566;13.346;2023-02-15T17:35:34;5.57;;;5.07;;
34775;SDS011;20989;52.566;13.346;2023-02-15T17:38:37;4.68;;;4.22;;
34775;SDS011;20989;52.566;13.346;2023-02-15T17:41:39;6.43;;;4.47;;
34775;SDS011;20989;52.566;13.346;2023-02-15T17:44:41;6.53;;;4.30;;
34775;SDS011;20989;52.566;13.346;2023-02-15T17:47:42;8.50;;;4.88;;
34775;SDS011;20989;52.566;13.346;2023-02-15T17:50:43;5.95;;;4.03;;
34775;SDS011;20989;52.566;13.346;2023-02-15T17:53:44;4.85;;;4.45;;
34775;SDS011;20989;52.566;13.346;2023-02-15T17:57:09;7.07;;;4.45;;
34775;SDS011;20989;52.566;13.346;2023-02-15T18:00:12;10.95;;;5.15;;
34775;SDS011;20989;52.566;13.346;2023-02-15T18:03:54;7.38;;;4.90;;
34775;SDS011;20989;52.566;13.346;2023-02-15T18:07:12;10.85;;;5.07;;
34775;SDS011;20989;52.566;13.346;2023-02-15T18:10:31;21.50;;;5.82;;
34775;SDS011;20989;52.566;13.346;2023-02-15T18:13:51;17.92;;;5.47;;
34775;SDS011;20989;52.566;13.346;2023-02-15T18:16:51;17.65;;;4.90;;
34775;SDS011;20989;52.566;13.346;2023-02-15T18:19:54;15.35;;;5.78;;
34775;SDS011;20989;52.566;13.346;2023-02-15T18:22:55;12.45;;;5.38;;
34775;SDS011;20989;52.566;13.346;2023-02-15T18:25:55;16.98;;;4.90;;
34775;SDS011;20989;52.566;13.346;2023-02-15T18:28:56;14.45;;;4.93;;
34775;SDS011;20989;52.566;13.346;2023-02-15T18:31:56;17.98;;;5.60;;
34775;SDS011;20989;52.566;13.346;2023-02-15T18:34:59;17.90;;;5.50;;
34775;SDS011;20989;52.566;13.346;2023-02-15T18:38:02;14.35;;;5.35;;
34775;SDS011;20989;52.566;13.346;2023-02-15T18:41:02;20.25;;;5.80;;
34775;SDS011;20989;52.566;13.346;2023-02-15T18:44:09;18.60;;;5.63;;
34775;SDS011;20989;52.566;13.346;2023-02-15T18:47:11;20.42;;;6.47;;
34775;SDS011;20989;52.566;13.346;2023-02-15T18:50:12;21.52;;;9.50;;
34775;SDS011;20989;52.566;13.346;2023-02-15T18:53:16;59.58;;;23.80;;
34775;SDS011;20989;52.566;13.346;2023-02-15T18:56:20;74.43;;;27.63;;
34775;SDS011;20989;52.566;13.346;2023-02-15T18:59:22;60.75;;;22.98;;
34775;SDS011;20989;52.566;13.346;2023-02-15T19:02:25;102.97;;;38.15;;
34775;SDS011;20989;52.566;13.346;2023-02-15T19:05:27;96.63;;;36.55;;
34775;SDS011;20989;52.566;13.346;2023-02-15T19:08:28;75.15;;;28.25;;
34775;SDS011;20989;52.566;13.346;2023-02-15T19:11:29;75.90;;;28.90;;
34775;SDS011;20989;52.566;13.346;2023-02-15T19:14:30;67.57;;;27.30;;
34775;SDS011;20989;52.566;13.346;2023-02-15T19:17:32;62.60;;;25.40;;
34775;SDS011;20989;52.566;13.346;2023-02-15T19:20:36;60.10;;;24.08;;
34775;SDS011;20989;52.566;13.346;2023-02-15T19:23:41;51.53;;;22.48;;
34775;SDS011;20989;52.566;13.346;2023-02-15T19:26:41;53.97;;;22.40;;
34775;SDS011;20989;52.566;13.346;2023-02-15T19:29:43;52.15;;;23.63;;
34775;SDS011;20989;52.566;13.346;2023-02-15T19:32:44;49.08;;;21.17;;
34775;SDS011;20989;52.566;13.346;2023-02-15T19:35:46;46.97;;;21.02;;
34775;SDS011;20989;52.566;13.346;2023-02-15T19:38:51;47.78;;;20.05;;
34775;SDS011;20989;52.566;13.346;2023-02-15T19:41:53;42.30;;;19.80;;
34775;SDS011;20989;52.566;13.346;2023-02-15T19:44:54;42.85;;;19.42;;
34775;SDS011;20989;52.566;13.346;2023-02-15T19:47:55;39.70;;;17.63;;
34775;SDS011;20989;52.566;13.346;2023-02-15T19:50:55;35.40;;;17.13;;
34775;SDS011;20989;52.566;13.346;2023-02-15T19:53:57;41.70;;;17.50;;
34775;SDS011;20989;52.566;13.346;2023-02-15T19:56:57;34.95;;;16.55;;
34775;SDS011;20989;52.566;13.346;2023-02-15T19:59:58;36.67;;;16.45;;
34775;SDS011;20989;52.566;13.346;2023-02-15T20:03:00;29.40;;;13.90;;
34775;SDS011;20989;52.566;13.346;2023-02-15T20:06:00;34.17;;;16.10;;
34775;SDS011;20989;52.566;13.346;2023-02-15T20:09:02;27.95;;;13.55;;
34775;SDS011;20989;52.566;13.346;2023-02-15T20:12:03;32.13;;;15.27;;
34775;SDS011;20989;52.566;13.346;2023-02-15T20:18:23;25.58;;;12.93;;
34775;SDS011;20989;52.566;13.346;2023-02-15T20:21:23;30.13;;;13.55;;
34775;SDS011;20989;52.566;13.346;2023-02-15T20:24:24;25.30;;;12.48;;
34775;SDS011;20989;52.566;13.346;2023-02-15T20:27:27;24.92;;;12.40;;
34775;SDS011;20989;52.566;13.346;2023-02-15T20:30:29;23.67;;;12.90;;
34775;SDS011;20989;52.566;13.346;2023-02-15T20:33:30;21.58;;;11.85;;
34775;SDS011;20989;52.566;13.346;2023-02-15T20:36:31;21.58;;;11.18;;
34775;SDS011;20989;52.566;13.346;2023-02-15T20:39:32;22.60;;;11.82;;
34775;SDS011;20989;52.566;13.346;2023-02-15T20:42:34;19.77;;;11.27;;
34775;SDS011;20989;52.566;13.346;2023-02-15T20:45:34;17.70;;;11.13;;
34775;SDS011;20989;52.566;13.346;2023-02-15T20:48:35;22.30;;;11.13;;